Time;durP1;ratioP1;P1;durP2;ratioP2;P2;SDS_P1;SDS_P2;PMS_P1;PMS_P2;Temp;Humidity;BMP_temperature;BMP_pressure;BME280_temperature;BME280_humidity;BME280_pressure;Samples;Min_cycle;Max_cycle;Signal;HPM_P1;HPM_P2
2023/10/15 00:00:50;;;;;;;0.43;0.43;;;;;;;9.25;98.93;101820.66;5011635;28;20336;-76
2023/10/15 00:03:16;;;;;;;4.20;1.05;;;;;;;9.13;98.12;101823.50;5013274;28;20346;-76
2023/10/15 00:05:42;;;;;;;4.70;0.80;;;;;;;9.00;97.64;101822.88;5013704;28;20072;-76
2023/10/15 00:08:07;;;;;;;2.85;1.20;;;;;;;9.00;97.39;101821.16;5013928;28;20046;-76
2023/10/15 00:10:34;;;;;;;2.53;0.80;;;;;;;9.08;97.99;101817.50;5013483;28;20250;-76
2023/10/15 00:13:00;;;;;;;1.98;0.80;;;;;;;9.15;97.89;101816.50;5011826;28;20329;-76
2023/10/15 00:15:28;;;;;;;1.10;0.60;;;;;;;9.20;97.81;101817.28;5014320;28;20088;-76
2023/10/15 00:18:13;;;;;;;1.77;0.98;;;;;;;9.21;98.21;101812.00;5011133;28;20044;-76
2023/10/15 00:20:40;;;;;;;3.53;1.00;;;;;;;9.20;98.55;101807.69;5014740;28;20044;-75
2023/10/15 00:23:06;;;;;;;1.10;0.80;;;;;;;9.18;98.55;101801.59;5014794;28;20164;-76
2023/10/15 00:25:47;;;;;;;0.65;0.60;;;;;;;9.17;99.21;101807.75;5012616;28;20069;-75
2023/10/15 00:28:12;;;;;;;1.20;0.65;;;;;;;9.17;99.50;101805.13;5004309;28;20033;-75
2023/10/15 00:30:39;;;;;;;1.40;0.80;;;;;;;9.16;99.97;101802.53;5010797;28;20044;-76
2023/10/15 00:33:11;;;;;;;1.48;0.60;;;;;;;9.13;100.00;101800.88;5014895;28;20033;-76
2023/10/15 00:35:36;;;;;;;1.63;0.70;;;;;;;9.12;100.00;101798.28;5010690;28;20125;-75
2023/10/15 00:38:11;;;;;;;1.40;0.57;;;;;;;9.10;100.00;101797.44;5005538;28;20041;-75
2023/10/15 00:40:37;;;;;;;3.45;0.80;;;;;;;9.02;100.00;101788.00;5009492;28;20048;-75
2023/10/15 00:43:04;;;;;;;1.35;0.60;;;;;;;9.00;100.00;101789.78;5011341;28;20057;-75
2023/10/15 00:45:34;;;;;;;3.03;0.88;;;;;;;9.02;100.00;101793.22;5004508;28;20037;-75
2023/10/15 00:50:31;;;;;;;3.33;0.77;;;;;;;9.00;100.00;101792.41;5004410;28;20038;-75
2023/10/15 00:53:03;;;;;;;1.42;0.95;;;;;;;8.95;100.00;101789.00;5015370;28;20033;-75
2023/10/15 00:55:29;;;;;;;1.27;0.60;;;;;;;8.95;100.00;101782.91;5011962;28;20045;-75
2023/10/15 00:57:56;;;;;;;2.60;1.20;;;;;;;8.95;100.00;101791.63;5014157;28;20042;-75
2023/10/15 01:05:25;;;;;;;2.58;0.93;;;;;;;8.87;100.00;101819.63;4991772;28;20387;-76
2023/10/15 01:07:51;;;;;;;2.55;1.00;;;;;;;8.70;100.00;101839.97;5012357;28;20354;-76
2023/10/15 01:10:49;;;;;;;5.55;0.93;;;;;;;8.55;100.00;101828.88;5015002;28;20072;-76
2023/10/15 01:13:17;;;;;;;3.60;0.73;;;;;;;8.76;100.00;101813.72;5014457;28;20049;-75
2023/10/15 01:15:48;;;;;;;2.53;0.80;;;;;;;8.82;100.00;101811.88;5014707;28;20325;-75
2023/10/15 01:18:13;;;;;;;4.10;0.70;;;;;;;8.91;100.00;101808.22;5014011;28;20045;-76
2023/10/15 01:20:42;;;;;;;4.53;1.25;;;;;;;8.88;100.00;101813.53;5014651;28;20076;-75
2023/10/15 01:23:45;;;;;;;2.08;0.70;;;;;;;8.93;100.00;101821.25;4997261;28;20057;-76
2023/10/15 01:26:10;;;;;;;6.22;0.98;;;;;;;8.82;100.00;101829.28;4994107;28;20043;-77
2023/10/15 01:28:36;;;;;;;7.30;1.05;;;;;;;8.77;100.00;101824.16;5014523;28;20072;-77
2023/10/15 01:31:05;;;;;;;5.85;1.20;;;;;;;8.80;100.00;101820.63;5014908;28;20040;-77
2023/10/15 01:33:32;;;;;;;5.65;1.00;;;;;;;8.84;100.00;101819.66;4994696;28;20105;-77
2023/10/15 01:36:01;;;;;;;9.07;2.17;;;;;;;8.86;100.00;101846.66;5010353;28;20069;-77
2023/10/15 01:38:28;;;;;;;4.75;0.82;;;;;;;8.90;100.00;101831.78;5011941;28;20069;-77
2023/10/15 01:40:56;;;;;;;5.13;0.95;;;;;;;8.87;100.00;101831.84;5014738;28;20058;-77
2023/10/15 01:43:22;;;;;;;5.53;1.02;;;;;;;8.86;100.00;101830.09;5014794;28;20041;-77
2023/10/15 01:45:51;;;;;;;2.75;0.60;;;;;;;8.79;100.00;101817.16;5013592;28;20216;-77
2023/10/15 01:48:38;;;;;;;2.13;0.80;;;;;;;8.78;100.00;101822.41;5017129;28;20113;-77
2023/10/15 01:51:06;;;;;;;1.73;0.70;;;;;;;8.75;100.00;101815.50;5018617;28;20043;-77
2023/10/15 01:53:37;;;;;;;2.38;0.57;;;;;;;8.77;100.00;101816.31;5017749;28;20251;-77
2023/10/15 01:56:04;;;;;;;1.08;0.65;;;;;;;8.76;100.00;101816.34;5018865;28;20315;-77
2023/10/15 01:58:33;;;;;;;4.97;0.68;;;;;;;8.74;100.00;101815.50;5017820;28;20104;-77
2023/10/15 02:01:08;;;;;;;;;;;;;;;8.73;100.00;101816.38;5018940;28;20317;-77
2023/10/15 02:03:34;;;;;;;2.00;0.73;;;;;;;8.73;100.00;101805.94;5016154;28;19921;-77
2023/10/15 02:06:05;;;;;;;1.20;0.65;;;;;;;8.69;100.00;101812.97;5018926;28;20044;-76
2023/10/15 02:08:31;;;;;;;3.85;0.88;;;;;;;8.68;100.00;101815.59;5017851;28;20346;-77
2023/10/15 02:10:56;;;;;;;3.95;0.88;;;;;;;8.68;100.00;101815.59;5018331;28;20216;-77
2023/10/15 02:13:22;;;;;;;2.05;0.80;;;;;;;8.70;100.00;101819.06;5017962;28;20279;-77
2023/10/15 02:15:49;;;;;;;2.00;0.80;;;;;;;8.67;100.00;101827.81;5018129;28;20102;-77
2023/10/15 02:18:17;;;;;;;2.65;1.13;;;;;;;8.64;100.00;101835.69;5017936;28;20041;-77
2023/10/15 02:23:12;;;;;;;4.32;1.33;;;;;;;8.61;100.00;101859.25;5016988;28;20030;-77
2023/10/15 02:25:46;;;;;;;5.53;1.42;;;;;;;8.50;100.00;101863.78;5016163;28;20391;-76
2023/10/15 02:28:13;;;;;;;6.60;1.25;;;;;;;8.25;100.00;101861.50;5003640;28;20186;-77
2023/10/15 02:30:40;;;;;;;4.72;1.20;;;;;;;8.14;100.00;101861.66;4995984;28;20034;-77
2023/10/15 02:33:06;;;;;;;4.22;0.70;;;;;;;8.19;100.00;101870.28;4998823;28;20050;-76
2023/10/15 02:35:39;;;;;;;5.55;0.90;;;;;;;8.23;100.00;101866.75;4998063;28;20493;-76
2023/10/15 02:38:08;;;;;;;2.70;0.80;;;;;;;8.30;100.00;101864.06;4998265;28;20214;-76
2023/10/15 02:40:38;;;;;;;1.60;0.70;;;;;;;8.32;100.00;101857.06;4997834;28;20042;-76
2023/10/15 02:43:06;;;;;;;4.38;0.88;;;;;;;8.35;100.00;101851.78;4998576;28;20368;-76
2023/10/15 02:45:35;;;;;;;2.30;1.00;;;;;;;8.37;100.00;101855.25;4997505;28;20045;-76
2023/10/15 02:48:10;;;;;;;1.13;0.73;;;;;;;8.32;100.00;101857.91;4997056;28;20213;-76
2023/10/15 02:50:36;;;;;;;1.42;0.70;;;;;;;8.30;100.00;101866.66;4997894;28;20038;-76
2023/10/15 02:53:05;;;;;;;2.38;0.90;;;;;;;8.30;100.00;101871.88;4997992;28;20089;-76
2023/10/15 02:55:37;;;;;;;4.60;1.05;;;;;;;8.20;100.00;101886.78;4997811;28;20037;-76
2023/10/15 02:58:02;;;;;;;8.10;0.88;;;;;;;7.93;100.00;101899.34;4998563;28;20208;-76
2023/10/15 03:00:28;;;;;;;3.63;0.98;;;;;;;7.80;100.00;101898.59;4997327;28;20340;-76
2023/10/15 03:02:57;;;;;;;1.15;0.60;;;;;;;7.87;100.00;101904.63;4997762;28;20030;-76
2023/10/15 03:05:30;;;;;;;2.50;0.88;;;;;;;7.89;100.00;101902.84;4996061;28;20368;-77
2023/10/15 03:07:59;;;;;;;2.00;0.65;;;;;;;8.02;100.00;101864.44;4996085;28;20040;-76
2023/10/15 03:10:44;;;;;;;1.17;0.60;;;;;;;8.13;100.00;101864.28;4997381;28;20344;-76
2023/10/15 03:13:14;;;;;;;1.30;0.35;;;;;;;8.23;100.00;101858.91;4997670;28;20317;-76
2023/10/15 03:15:48;;;;;;;0.65;0.50;;;;;;;8.28;100.00;101845.81;4997133;28;20363;-76
2023/10/15 03:18:21;;;;;;;1.83;0.60;;;;;;;8.32;100.00;101810.94;4997699;28;20046;-76
2023/10/15 03:20:49;;;;;;;4.90;0.50;;;;;;;8.31;100.00;101808.34;4997176;28;20113;-76
2023/10/15 03:23:18;;;;;;;1.65;0.52;;;;;;;8.29;100.00;101810.13;4997601;28;20331;-76
2023/10/15 03:25:47;;;;;;;;;;;;;;;8.23;100.00;101811.94;4997429;28;20126;-76
2023/10/15 03:28:13;;;;;;;0.75;0.50;;;;;;;8.22;100.00;101818.06;4997938;28;19993;-76
2023/10/15 03:30:44;;;;;;;0.57;0.47;;;;;;;8.27;100.00;101817.97;4995576;28;20042;-76
2023/10/15 03:33:13;;;;;;;1.98;0.60;;;;;;;8.31;100.00;101816.19;4997379;28;20034;-76
2023/10/15 03:35:39;;;;;;;0.52;0.30;;;;;;;8.29;100.00;101818.81;4996561;28;20332;-76
2023/10/15 03:38:07;;;;;;;1.13;0.55;;;;;;;8.23;100.00;101835.44;4995530;28;20034;-76
2023/10/15 03:40:41;;;;;;;2.10;0.60;;;;;;;8.11;100.00;101840.81;4994861;28;20339;-76
2023/10/15 03:43:06;;;;;;;3.40;1.00;;;;;;;8.06;100.00;101848.72;4995794;28;20336;-76
2023/10/15 03:45:41;;;;;;;2.10;0.55;;;;;;;8.05;100.00;101840.91;4996681;28;20042;-76
2023/10/15 03:48:13;;;;;;;3.35;0.50;;;;;;;8.06;100.00;101848.72;4995490;28;20419;-76
2023/10/15 03:50:53;;;;;;;3.25;0.60;;;;;;;8.05;100.00;101841.78;4994902;28;20093;-76
2023/10/15 03:53:20;;;;;;;2.22;0.93;;;;;;;8.07;100.00;101845.22;5006857;28;20045;-76
2023/10/15 03:55:49;;;;;;;1.40;0.40;;;;;;;8.08;100.00;101844.34;5016485;28;20761;-76
2023/10/15 03:58:16;;;;;;;2.03;0.77;;;;;;;8.07;100.00;101846.97;5016136;28;20025;-76
2023/10/15 04:00:46;;;;;;;1.27;0.45;;;;;;;8.09;100.00;101850.41;5015808;28;20344;-76
2023/10/15 04:03:28;;;;;;;1.17;0.63;;;;;;;8.10;100.00;101851.31;5015647;28;20286;-76
2023/10/15 04:06:05;;;;;;;1.10;0.77;;;;;;;8.12;100.00;101845.16;5015142;28;20105;-76
2023/10/15 04:08:31;;;;;;;1.83;0.82;;;;;;;8.14;100.00;101847.75;5014754;28;20352;-76
2023/10/15 04:10:57;;;;;;;2.00;1.05;;;;;;;8.15;100.00;101846.84;5016224;28;20053;-76
2023/10/15 04:13:22;;;;;;;2.75;0.55;;;;;;;8.16;100.00;101854.66;5006269;28;20034;-76
2023/10/15 04:15:49;;;;;;;2.17;0.50;;;;;;;8.22;100.00;101851.09;4996375;28;20295;-76
2023/10/15 04:18:14;;;;;;;3.90;0.70;;;;;;;8.19;100.00;101856.38;4996562;28;20034;-76
2023/10/15 04:20:42;;;;;;;1.85;0.70;;;;;;;8.15;100.00;101858.19;4995888;28;20034;-77
2023/10/15 04:23:13;;;;;;;1.65;0.70;;;;;;;8.14;100.00;101855.59;4996143;28;20309;-76
2023/10/15 04:25:38;;;;;;;3.40;0.50;;;;;;;8.12;100.00;101858.22;4995814;28;20424;-76
2023/10/15 04:28:11;;;;;;;1.25;0.50;;;;;;;8.13;100.00;101865.16;4996275;28;20034;-76
2023/10/15 04:30:42;;;;;;;1.75;0.50;;;;;;;8.13;100.00;101875.59;4995715;28;20038;-76
2023/10/15 04:33:13;;;;;;;1.63;0.50;;;;;;;8.17;100.00;101881.66;4996490;28;20029;-76
2023/10/15 04:35:40;;;;;;;0.73;0.45;;;;;;;8.21;100.00;101878.94;4995728;28;20040;-76
2023/10/15 04:38:09;;;;;;;5.28;1.00;;;;;;;8.25;100.00;101858.91;4995905;28;20080;-76
2023/10/15 04:43:24;;;;;;;2.20;0.88;;;;;;;8.22;100.00;101893.75;4995953;28;20390;-76
2023/10/15 04:45:50;;;;;;;2.30;0.60;;;;;;;8.25;100.00;101898.03;4995586;28;20030;-76
2023/10/15 04:48:16;;;;;;;1.50;0.70;;;;;;;8.24;100.00;101915.47;4995928;28;20038;-77
2023/10/15 04:50:45;;;;;;;1.60;0.85;;;;;;;8.14;100.00;101903.41;4995358;28;20121;-76
2023/10/15 04:55:48;;;;;;;4.85;0.90;;;;;;;8.03;100.00;101887.91;4995221;28;20030;-77
2023/10/15 04:58:14;;;;;;;3.10;0.80;;;;;;;8.02;100.00;101888.78;4994594;28;20055;-76
2023/10/15 05:00:47;;;;;;;5.20;0.65;;;;;;;7.94;100.00;101876.72;4995066;28;20106;-76
2023/10/15 05:03:14;;;;;;;10.30;1.67;;;;;;;7.97;100.00;101887.13;4995770;28;20065;-76
2023/10/15 05:05:42;;;;;;;5.13;0.98;;;;;;;7.98;100.00;101884.47;4995349;28;20042;-76
2023/10/15 05:08:11;;;;;;;5.90;0.82;;;;;;;7.93;100.00;101886.31;4995411;28;20107;-76
2023/10/15 05:10:37;;;;;;;;;;;;;;;7.92;100.00;101884.56;4995393;28;20336;-76
2023/10/15 05:13:03;;;;;;;4.00;0.73;;;;;;;7.95;100.00;101892.38;4994161;28;20164;-76
2023/10/15 05:15:28;;;;;;;2.15;1.15;;;;;;;7.93;100.00;101888.03;4995535;28;20261;-76
2023/10/15 05:17:53;;;;;;;2.38;0.90;;;;;;;7.89;100.00;101900.25;4995592;28;20232;-76
2023/10/15 05:20:20;;;;;;;5.40;0.70;;;;;;;7.81;99.05;101887.31;4994376;28;20065;-76
2023/10/15 05:22:49;;;;;;;4.00;0.60;;;;;;;7.83;99.64;101877.72;4994754;28;20038;-76
2023/10/15 05:25:17;;;;;;;3.53;1.00;;;;;;;7.88;99.85;101875.91;4995467;28;20046;-75
2023/10/15 05:27:51;;;;;;;3.13;1.00;;;;;;;7.93;100.00;101872.38;4995170;28;20272;-76
2023/10/15 05:30:18;;;;;;;1.40;0.63;;;;;;;7.95;100.00;101879.31;4995298;28;20034;-76
2023/10/15 05:32:44;;;;;;;1.55;0.73;;;;;;;7.96;100.00;101878.41;4995289;28;20371;-76
2023/10/15 05:35:09;;;;;;;1.17;0.65;;;;;;;7.94;99.67;101884.56;5015452;28;20360;-76
2023/10/15 05:37:42;;;;;;;2.58;0.50;;;;;;;7.96;99.94;101882.78;5013298;28;20036;-76
2023/10/15 05:40:08;;;;;;;2.20;0.50;;;;;;;7.93;99.84;101891.53;4995344;28;20284;-76
2023/10/15 05:42:35;;;;;;;2.13;0.50;;;;;;;7.93;99.86;101899.34;4994636;28;20061;-76
2023/10/15 05:45:01;;;;;;;3.22;0.60;;;;;;;7.91;99.81;101901.09;4995536;28;20054;-76
2023/10/15 05:47:26;;;;;;;2.92;0.65;;;;;;;7.90;99.67;101906.34;4994882;28;20104;-76
2023/10/15 05:49:54;;;;;;;2.33;0.50;;;;;;;7.92;99.72;101920.22;4995075;28;20041;-76
2023/10/15 05:52:19;;;;;;;1.42;0.70;;;;;;;7.92;99.98;101912.41;4995163;28;20061;-76
2023/10/15 05:54:46;;;;;;;1.17;0.63;;;;;;;7.96;100.00;101909.72;4993323;28;20062;-76
2023/10/15 05:57:12;;;;;;;4.18;0.68;;;;;;;7.99;100.00;101904.47;4995243;28;20261;-76
2023/10/15 05:59:37;;;;;;;2.83;0.85;;;;;;;8.00;100.00;101905.31;4993355;28;20037;-76
2023/10/15 06:02:04;;;;;;;2.50;0.45;;;;;;;7.98;100.00;101927.97;4995557;28;20337;-76
2023/10/15 06:04:30;;;;;;;1.00;0.50;;;;;;;7.98;100.00;101931.44;4994529;28;20293;-76
2023/10/15 06:06:55;;;;;;;5.78;0.90;;;;;;;7.86;100.00;101919.41;4995027;28;20117;-76
2023/10/15 06:09:21;;;;;;;7.88;0.98;;;;;;;7.85;100.00;101937.69;4994660;28;20347;-76
2023/10/15 06:11:46;;;;;;;4.25;0.70;;;;;;;7.82;100.00;101938.59;4996750;28;20046;-76
2023/10/15 06:14:12;;;;;;;2.97;0.70;;;;;;;7.90;100.00;101935.03;5014467;28;20345;-76
2023/10/15 06:16:37;;;;;;;3.50;0.73;;;;;;;7.92;100.00;101944.56;5002597;28;20034;-76
2023/10/15 06:19:03;;;;;;;2.58;1.00;;;;;;;7.95;100.00;101944.53;5003340;28;20038;-76
2023/10/15 06:21:28;;;;;;;3.60;1.23;;;;;;;7.98;100.00;101913.16;5014085;28;20060;-76
2023/10/15 06:23:53;;;;;;;4.05;0.90;;;;;;;8.00;100.00;101913.16;5014287;28;20061;-76
2023/10/15 06:26:19;;;;;;;1.58;0.50;;;;;;;8.04;100.00;101925.28;5013044;28;20359;-76
2023/10/15 06:28:44;;;;;;;5.18;0.90;;;;;;;8.05;100.00;101927.00;5013804;28;20041;-76
2023/10/15 06:31:10;;;;;;;8.43;1.15;;;;;;;8.05;100.00;101927.00;5014560;28;20037;-76
2023/10/15 06:33:40;;;;;;;3.05;0.82;;;;;;;8.05;100.00;101934.84;5016925;28;20060;-76
2023/10/15 06:36:06;;;;;;;6.95;0.70;;;;;;;8.05;100.00;101935.69;5017974;28;20038;-76
2023/10/15 06:38:32;;;;;;;2.05;0.50;;;;;;;8.03;100.00;101937.47;5017147;28;20042;-76
2023/10/15 06:40:57;;;;;;;1.60;0.70;;;;;;;8.00;100.00;101939.25;5017896;28;20037;-76
2023/10/15 06:43:23;;;;;;;1.75;0.50;;;;;;;8.01;100.00;101948.81;5017288;28;20025;-76
2023/10/15 06:45:51;;;;;;;3.55;1.02;;;;;;;7.99;100.00;101950.56;5017363;28;20379;-76
2023/10/15 06:48:17;;;;;;;2.05;0.70;;;;;;;8.01;100.00;101954.88;5017465;28;20401;-76
2023/10/15 06:50:42;;;;;;;6.68;1.02;;;;;;;8.03;100.00;101952.25;5017080;28;20042;-76
2023/10/15 06:53:08;;;;;;;2.75;0.80;;;;;;;8.04;100.00;101960.06;5016129;28;20033;-76
2023/10/15 06:55:33;;;;;;;3.08;0.85;;;;;;;8.05;100.00;101956.56;5016540;28;20318;-76
2023/10/15 06:57:59;;;;;;;4.30;0.80;;;;;;;8.08;100.00;101961.75;5017078;28;20328;-76
2023/10/15 07:00:24;;;;;;;9.63;0.93;;;;;;;8.09;100.00;101957.38;5016433;28;20041;-76
2023/10/15 07:02:53;;;;;;;4.50;0.73;;;;;;;8.13;100.00;101959.09;5017345;28;20030;-76
2023/10/15 07:05:20;;;;;;;6.78;1.02;;;;;;;8.14;100.00;101968.63;5016749;28;20038;-76
2023/10/15 07:07:46;;;;;;;2.35;0.77;;;;;;;8.16;100.00;101971.22;5016126;28;20068;-76
2023/10/15 07:10:15;;;;;;;11.48;1.25;;;;;;;8.11;100.00;101981.72;5016577;28;20360;-76
2023/10/15 07:12:45;;;;;;;4.53;1.20;;;;;;;8.12;100.00;101983.47;5016392;28;20048;-76
2023/10/15 07:15:14;;;;;;;3.55;1.20;;;;;;;8.06;100.00;101987.00;5016589;28;20036;-76
2023/10/15 07:17:41;;;;;;;10.45;1.27;;;;;;;8.04;100.00;101988.78;5013010;28;20092;-76
2023/10/15 07:20:14;;;;;;;10.98;1.60;;;;;;;8.10;100.00;101997.41;5015610;28;20061;-76
2023/10/15 07:22:40;;;;;;;8.35;1.10;;;;;;;8.09;100.00;101999.13;5016153;28;20383;-76
2023/10/15 07:25:08;;;;;;;11.57;1.80;;;;;;;8.06;100.00;102002.66;5015943;28;20033;-76
2023/10/15 07:27:34;;;;;;;9.02;1.02;;;;;;;7.99;100.00;102024.47;5016651;28;20044;-76
2023/10/15 07:29:59;;;;;;;4.72;0.60;;;;;;;8.00;100.00;102020.97;5016666;28;20033;-76
2023/10/15 07:32:25;;;;;;;6.22;1.40;;;;;;;7.96;100.00;102029.72;5016609;28;20488;-76
2023/10/15 07:34:53;;;;;;;3.58;0.60;;;;;;;7.99;100.00;102036.66;5016484;28;20025;-75
2023/10/15 07:37:18;;;;;;;8.90;1.10;;;;;;;7.98;99.88;102046.22;5016659;28;20037;-75
2023/10/15 07:39:44;;;;;;;8.25;1.38;;;;;;;8.00;99.98;102049.66;5011239;28;20038;-75
2023/10/15 07:42:09;;;;;;;8.20;1.23;;;;;;;8.04;100.00;102053.09;5016584;28;20294;-75
2023/10/15 07:44:35;;;;;;;2.45;0.77;;;;;;;8.11;100.00;102046.94;5015098;28;20038;-75
2023/10/15 07:47:00;;;;;;;3.83;1.33;;;;;;;8.13;100.00;102041.72;5012710;28;20041;-75
2023/10/15 07:49:25;;;;;;;8.68;0.60;;;;;;;8.18;100.00;102043.38;5010272;28;20033;-75
2023/10/15 07:51:51;;;;;;;2.85;0.52;;;;;;;8.20;99.31;102052.06;5013021;28;20138;-75
2023/10/15 07:54:16;;;;;;;6.88;0.90;;;;;;;8.25;99.51;102060.69;5012549;28;20040;-75
2023/10/15 07:56:42;;;;;;;5.10;0.88;;;;;;;8.27;98.78;102066.75;5012430;28;20041;-75
2023/10/15 07:59:08;;;;;;;2.60;0.50;;;;;;;8.30;96.99;102073.72;5012303;28;20041;-75
2023/10/15 08:01:36;;;;;;;3.38;0.70;;;;;;;8.35;97.00;102081.47;5012561;28;20083;-75
2023/10/15 08:04:03;;;;;;;1.75;0.60;;;;;;;8.40;97.24;102074.47;5005313;28;20050;-75
2023/10/15 08:06:28;;;;;;;1.27;0.65;;;;;;;8.41;97.93;102074.44;4997391;28;20042;-75
2023/10/15 08:08:53;;;;;;;3.83;0.90;;;;;;;8.37;97.60;102080.59;4992453;28;20345;-75
2023/10/15 08:11:19;;;;;;;9.43;1.58;;;;;;;8.34;98.67;102074.53;5007546;28;20081;-75
2023/10/15 08:13:44;;;;;;;8.70;1.00;;;;;;;8.32;100.00;102074.56;4992317;28;20034;-75
2023/10/15 08:16:09;;;;;;;9.38;1.50;;;;;;;8.35;100.00;102073.66;4994274;28;20352;-75
2023/10/15 08:18:35;;;;;;;3.03;0.82;;;;;;;8.39;100.00;102076.22;5010039;28;20030;-75
2023/10/15 08:21:00;;;;;;;5.50;1.55;;;;;;;8.39;100.00;102073.59;5009849;28;20040;-75
2023/10/15 08:23:27;;;;;;;5.45;0.95;;;;;;;8.37;100.00;102072.75;5008156;28;20034;-75
2023/10/15 08:25:53;;;;;;;2.83;1.13;;;;;;;8.42;100.00;102080.56;4994188;28;20256;-75
2023/10/15 08:28:18;;;;;;;4.47;0.70;;;;;;;8.40;100.00;102108.41;4994210;28;20042;-76
2023/10/15 08:30:44;;;;;;;3.63;1.00;;;;;;;8.33;100.00;102128.50;4993655;28;20065;-76
2023/10/15 08:33:12;;;;;;;6.18;0.90;;;;;;;8.14;100.00;102137.41;5002026;28;20184;-76
2023/10/15 08:35:38;;;;;;;1.58;0.57;;;;;;;8.08;99.60;102133.09;4993011;28;20034;-76
2023/10/15 08:38:07;;;;;;;6.97;0.82;;;;;;;8.12;99.48;102132.19;4993776;28;20041;-76
2023/10/15 08:40:37;;;;;;;4.47;1.10;;;;;;;8.14;99.64;102129.56;5004977;28;20368;-76
2023/10/15 08:43:16;;;;;;;2.10;0.95;;;;;;;8.18;100.00;102123.44;4994887;28;20057;-76
2023/10/15 08:45:45;;;;;;;1.50;0.63;;;;;;;8.21;100.00;102129.47;4993306;28;20033;-76
2023/10/15 08:48:15;;;;;;;2.75;0.43;;;;;;;8.26;100.00;102135.53;4993341;28;20038;-76
2023/10/15 08:50:43;;;;;;;0.88;0.40;;;;;;;8.32;100.00;102123.28;5008537;28;20030;-76
2023/10/15 08:53:08;;;;;;;1.38;0.50;;;;;;;8.36;100.00;102138.03;5009115;28;20262;-76
2023/10/15 08:55:37;;;;;;;1.92;0.77;;;;;;;8.42;100.00;102148.44;5009487;28;20049;-76
2023/10/15 08:58:06;;;;;;;1.02;0.60;;;;;;;8.40;100.00;102160.59;5010397;28;20072;-76
2023/10/15 09:00:32;;;;;;;3.40;0.90;;;;;;;8.38;100.00;102150.19;5010018;28;20209;-76
2023/10/15 09:03:02;;;;;;;2.92;1.02;;;;;;;8.40;100.00;102134.50;5009156;28;20048;-76
2023/10/15 09:05:33;;;;;;;2.85;0.60;;;;;;;8.41;100.00;102134.50;5009121;28;20042;-76
2023/10/15 09:08:06;;;;;;;0.55;0.40;;;;;;;8.45;100.00;102135.34;5005918;28;20453;-76
2023/10/15 09:10:32;;;;;;;0.82;0.43;;;;;;;8.50;100.00;102135.31;4992372;28;20333;-76
2023/10/15 09:12:59;;;;;;;0.55;0.38;;;;;;;8.53;100.00;102151.81;5000277;28;20052;-76
2023/10/15 09:15:29;;;;;;;1.92;0.60;;;;;;;8.58;100.00;102149.13;4993116;28;20045;-76
2023/10/15 09:17:58;;;;;;;4.20;0.77;;;;;;;8.59;100.00;102159.56;4993469;28;20300;-76
2023/10/15 09:20:32;;;;;;;1.25;0.50;;;;;;;8.63;100.00;102153.41;4993117;28;20132;-76
2023/10/15 09:23:00;;;;;;;3.70;0.75;;;;;;;8.61;100.00;102196.13;4992911;28;20278;-76
2023/10/15 09:25:26;;;;;;;9.90;1.80;;;;;;;8.58;100.00;102214.41;4992769;28;20062;-76
2023/10/15 09:27:56;;;;;;;5.03;1.10;;;;;;;8.41;100.00;102206.72;4994408;28;20092;-77
2023/10/15 09:30:23;;;;;;;4.75;1.27;;;;;;;8.44;100.00;102204.09;5010214;28;20063;-77
2023/10/15 09:32:49;;;;;;;2.95;0.85;;;;;;;8.49;100.00;102204.06;5010844;28;20060;-76
2023/10/15 09:35:15;;;;;;;4.13;0.75;;;;;;;8.47;100.00;102201.47;5010220;28;20510;-76
2023/10/15 09:37:41;;;;;;;1.90;0.80;;;;;;;8.39;100.00;102196.31;5009367;28;20065;-76
2023/10/15 09:40:18;;;;;;;2.05;0.55;;;;;;;8.38;100.00;102198.91;5010272;28;20045;-76
2023/10/15 09:42:46;;;;;;;2.45;0.85;;;;;;;8.35;100.00;102202.44;5009002;28;20339;-76
2023/10/15 09:45:18;;;;;;;2.13;0.80;;;;;;;8.36;100.00;102198.94;5009778;28;20027;-76
2023/10/15 09:47:48;;;;;;;3.25;0.88;;;;;;;8.42;100.00;102205.88;4998614;28;20049;-76
2023/10/15 09:50:19;;;;;;;4.80;1.10;;;;;;;8.48;100.00;102198.00;4992330;28;20038;-76
2023/10/15 09:52:55;;;;;;;8.80;1.30;;;;;;;8.57;100.00;102210.09;4992037;28;20058;-76
2023/10/15 09:55:23;;;;;;;4.40;1.40;;;;;;;8.64;100.00;102207.41;5003759;28;20361;-76
2023/10/15 09:57:52;;;;;;;3.75;0.70;;;;;;;8.68;100.00;102218.69;4992589;28;20360;-76
2023/10/15 10:00:26;;;;;;;6.30;1.05;;;;;;;8.76;100.00;102216.81;4992685;28;20292;-76
2023/10/15 10:03:08;;;;;;;5.28;1.00;;;;;;;8.80;100.00;102213.31;4992319;28;20341;-76
2023/10/15 10:05:45;;;;;;;4.40;0.80;;;;;;;8.89;100.00;102206.25;4991976;28;20042;-76
2023/10/15 10:08:26;;;;;;;3.05;1.05;;;;;;;8.91;100.00;102215.78;4996024;28;20058;-76
2023/10/15 10:11:05;;;;;;;3.20;0.93;;;;;;;8.88;100.00;102223.69;4995835;28;20096;-76
2023/10/15 10:13:54;;;;;;;5.05;0.90;;;;;;;8.84;100.00;102225.47;4996163;28;20400;-76
2023/10/15 10:16:24;;;;;;;6.72;1.08;;;;;;;8.81;100.00;102229.84;4996440;28;20053;-75
2023/10/15 10:18:49;;;;;;;8.70;1.33;;;;;;;8.85;100.00;102223.69;4995964;28;20038;-76
2023/10/15 10:21:16;;;;;;;5.95;0.90;;;;;;;8.92;100.00;102222.75;4996457;28;20385;-75
2023/10/15 10:23:43;;;;;;;3.72;0.90;;;;;;;9.02;100.00;102224.38;4995014;28;20098;-75
2023/10/15 10:26:13;;;;;;;3.35;0.95;;;;;;;9.00;97.35;102231.38;4996177;28;20042;-75
2023/10/15 10:28:39;;;;;;;2.78;0.60;;;;;;;9.06;96.82;102226.94;5008167;28;20026;-75
2023/10/15 10:31:07;;;;;;;5.32;0.90;;;;;;;9.08;96.11;102222.56;4995532;28;20421;-75
2023/10/15 10:33:49;;;;;;;5.35;0.75;;;;;;;9.10;96.85;102218.19;5015962;28;20042;-75
2023/10/15 10:36:25;;;;;;;6.85;1.48;;;;;;;9.12;95.42;102224.28;5015116;28;20049;-75
2023/10/15 10:38:59;;;;;;;2.15;0.77;;;;;;;9.15;95.33;102229.44;4997163;28;20253;-75
2023/10/15 10:41:36;;;;;;;3.47;1.05;;;;;;;9.19;95.64;102225.91;4995737;28;20264;-75
2023/10/15 10:44:03;;;;;;;6.43;1.00;;;;;;;9.22;94.37;102233.69;4995986;28;20396;-75
2023/10/15 10:46:29;;;;;;;4.28;1.10;;;;;;;9.21;90.33;102235.47;4995111;28;20042;-75
2023/10/15 10:49:05;;;;;;;5.53;1.17;;;;;;;9.23;91.73;102238.91;4994499;28;20391;-75
2023/10/15 10:51:35;;;;;;;8.10;1.42;;;;;;;9.20;91.12;102245.94;4995218;28;20030;-75
2023/10/15 10:54:02;;;;;;;7.75;0.77;;;;;;;9.19;88.73;102244.22;4995541;28;20360;-75
2023/10/15 10:56:40;;;;;;;7.72;1.35;;;;;;;9.15;87.27;102250.34;4995336;28;20393;-74
2023/10/15 10:59:09;;;;;;;10.90;1.25;;;;;;;9.18;87.38;102251.19;4995249;28;20329;-75
2023/10/15 11:01:39;;;;;;;4.50;1.10;;;;;;;9.23;87.10;102264.19;4994839;28;20039;-74
2023/10/15 11:04:08;;;;;;;5.18;1.05;;;;;;;9.29;89.07;102258.88;4995657;28;20054;-75
2023/10/15 11:06:37;;;;;;;4.97;1.20;;;;;;;9.36;87.18;102263.16;4995106;28;20049;-75
2023/10/15 11:09:22;;;;;;;7.65;1.70;;;;;;;9.40;88.12;102261.38;4995168;28;20138;-74
2023/10/15 11:11:55;;;;;;;2.55;0.60;;;;;;;9.45;82.90;102256.94;4994559;28;20044;-75
2023/10/15 11:14:27;;;;;;;4.47;0.55;;;;;;;9.43;84.61;102274.41;4995367;28;20216;-74
2023/10/15 11:16:55;;;;;;;6.40;0.65;;;;;;;9.44;85.19;102263.06;4995038;28;20484;-74
2023/10/15 11:19:28;;;;;;;7.25;1.15;;;;;;;9.45;82.64;102264.78;4996879;28;20215;-74
2023/10/15 11:21:55;;;;;;;10.90;1.52;;;;;;;9.49;80.94;102265.63;5009046;28;20038;-74
2023/10/15 11:24:24;;;;;;;3.55;0.90;;;;;;;9.54;80.79;102264.66;5001810;28;20225;-75
2023/10/15 11:26:50;;;;;;;3.85;0.90;;;;;;;9.54;83.92;102262.03;4994673;28;20264;-74
2023/10/15 11:29:20;;;;;;;1.58;0.50;;;;;;;9.59;86.33;102262.84;4995108;28;20092;-74
2023/10/15 11:31:48;;;;;;;3.20;1.10;;;;;;;9.63;81.24;102265.44;4994521;28;20053;-74
2023/10/15 11:34:21;;;;;;;6.30;0.90;;;;;;;9.66;77.38;102252.28;4997475;28;20046;-74
2023/10/15 11:36:50;;;;;;;5.82;0.98;;;;;;;9.68;80.32;102254.03;5010101;28;20113;-74
2023/10/15 11:39:38;;;;;;;2.35;1.10;;;;;;;9.71;79.95;102256.56;5013100;28;20148;-74
2023/10/15 11:42:04;;;;;;;6.45;0.93;;;;;;;9.77;82.80;102264.34;5011508;28;20057;-74
2023/10/15 11:44:33;;;;;;;8.85;0.80;;;;;;;9.83;82.72;102266.00;5009128;28;20056;-74
2023/10/15 11:47:01;;;;;;;6.53;0.88;;;;;;;9.85;80.27;102266.00;5010455;28;20364;-74
2023/10/15 11:49:27;;;;;;;3.83;1.17;;;;;;;9.85;78.97;102273.84;5011839;28;20251;-74